createdAt,value
2018-07-11T00:01:52.398Z,63.50
2018-07-11T00:04:21.640Z,63.30
2018-07-11T00:06:50.829Z,63.60
2018-07-11T00:09:20.064Z,64.00
2018-07-11T00:11:49.809Z,63.70
2018-07-11T00:14:18.980Z,64.40
2018-07-11T00:16:53.199Z,64.60
2018-07-11T00:19:22.396Z,64.70
2018-07-11T00:21:51.595Z,64.80
2018-07-11T00:24:20.818Z,65.00
2018-07-11T00:26:50.028Z,65.00
2018-07-11T00:29:19.220Z,65.20
2018-07-11T00:31:48.460Z,65.40
2018-07-11T00:34:17.740Z,65.30
2018-07-11T00:36:46.967Z,65.50
2018-07-11T00:39:16.312Z,65.70
2018-07-11T00:41:45.556Z,65.70
2018-07-11T00:44:15.092Z,65.60
2018-07-11T00:46:44.415Z,65.60
2018-07-11T00:49:13.618Z,65.40
2018-07-11T00:51:42.867Z,65.60
2018-07-11T00:54:12.110Z,65.70
2018-07-11T00:56:41.728Z,65.70
2018-07-11T00:59:14.173Z,65.80
2018-07-11T01:01:43.471Z,66.00
2018-07-11T01:04:12.758Z,65.90
2018-07-11T01:06:41.997Z,65.60
2018-07-11T01:09:11.221Z,65.30
2018-07-11T01:11:40.451Z,65.30
2018-07-11T01:14:09.667Z,65.40
2018-07-11T01:16:38.872Z,65.40
2018-07-11T01:19:09.527Z,65.50
2018-07-11T01:21:39.030Z,65.50
2018-07-11T01:24:08.232Z,65.40
2018-07-11T01:26:38.765Z,65.10
2018-07-11T01:29:08.575Z,65.10
2018-07-11T01:31:37.797Z,65.00
2018-07-11T01:34:06.967Z,65.20
2018-07-11T01:36:36.195Z,65.50
2018-07-11T01:39:05.561Z,65.50
2018-07-11T01:41:34.800Z,65.60
2018-07-11T01:44:04.022Z,65.80
2018-07-11T01:49:06.333Z,65.30
2018-07-11T01:51:46.538Z,65.20
2018-07-11T01:54:15.711Z,65.40
2018-07-11T01:56:44.897Z,65.30
2018-07-11T01:59:14.106Z,65.40
2018-07-11T02:01:43.476Z,65.40
2018-07-11T02:04:13.169Z,65.30
2018-07-11T02:06:42.929Z,65.40
2018-07-11T02:09:12.148Z,65.50
2018-07-11T02:11:41.418Z,65.20
2018-07-11T02:14:10.624Z,65.20
2018-07-11T02:16:39.823Z,65.10
2018-07-11T02:19:09.295Z,65.50
2018-07-11T02:21:38.581Z,65.80
2018-07-11T02:24:07.781Z,65.70
2018-07-11T02:26:37.026Z,66.10
2018-07-11T02:29:06.212Z,66.10
2018-07-11T02:31:35.515Z,66.30
2018-07-11T02:34:04.732Z,66.20
2018-07-11T02:36:33.924Z,65.80
2018-07-11T02:39:03.296Z,65.60
2018-07-11T02:41:32.614Z,65.10
2018-07-11T02:44:01.818Z,65.10
2018-07-11T02:46:36.452Z,65.20
2018-07-11T02:49:05.726Z,65.00
2018-07-11T02:51:35.424Z,64.60
2018-07-11T02:54:04.675Z,64.60
2018-07-11T02:56:33.880Z,64.90
2018-07-11T02:59:03.082Z,64.80
2018-07-11T03:01:32.272Z,64.90
2018-07-11T03:04:01.465Z,65.20
2018-07-11T03:06:30.664Z,65.10
2018-07-11T03:08:59.845Z,65.30
2018-07-11T03:11:29.192Z,65.40
2018-07-11T03:13:58.421Z,65.60
2018-07-11T03:16:27.609Z,65.70
2018-07-11T03:18:56.808Z,65.60
2018-07-11T03:21:26.110Z,64.90
2018-07-11T03:23:55.611Z,64.20
2018-07-11T03:26:24.785Z,64.10
2018-07-11T03:28:54.013Z,64.60
2018-07-11T03:31:23.297Z,64.50
2018-07-11T03:33:52.468Z,64.60
2018-07-11T03:36:21.663Z,64.90
2018-07-11T03:38:50.878Z,66.20
2018-07-11T03:41:20.160Z,65.50
2018-07-11T03:43:49.399Z,65.10
2018-07-11T03:46:18.631Z,65.40
2018-07-11T03:48:47.953Z,65.60
2018-07-11T03:51:17.151Z,65.40
2018-07-11T03:53:46.332Z,64.80
2018-07-11T03:56:15.586Z,64.60
2018-07-11T03:58:44.752Z,64.10
2018-07-11T04:01:15.046Z,63.90
2018-07-11T04:03:44.831Z,63.50
2018-07-11T04:06:14.054Z,63.60
2018-07-11T04:08:43.225Z,63.90
2018-07-11T04:11:12.426Z,63.80
2018-07-11T04:13:41.603Z,63.60
2018-07-11T04:16:10.855Z,63.40
2018-07-11T04:18:40.182Z,63.30
2018-07-11T04:21:09.419Z,63.00
2018-07-11T04:23:38.644Z,63.50
2018-07-11T04:26:07.815Z,63.10
2018-07-11T04:28:37.460Z,63.00
2018-07-11T04:31:06.988Z,63.30
2018-07-11T04:33:36.217Z,63.20
2018-07-11T04:36:05.455Z,63.40
2018-07-11T04:38:34.660Z,63.50
2018-07-11T04:41:03.910Z,63.50
2018-07-11T04:43:33.147Z,63.50
2018-07-11T04:46:02.353Z,63.40
2018-07-11T04:48:31.777Z,63.40
2018-07-11T04:53:29.954Z,63.40
2018-07-11T04:56:02.847Z,63.40
2018-07-11T04:58:32.648Z,63.50
2018-07-11T05:01:02.352Z,63.40
2018-07-11T05:03:31.653Z,63.40
2018-07-11T05:06:00.953Z,63.30
2018-07-11T05:08:30.285Z,63.30
2018-07-11T05:10:59.574Z,63.30
2018-07-11T05:13:28.906Z,64.20
2018-07-11T05:15:58.262Z,63.70
2018-07-11T05:18:27.595Z,63.30
2018-07-11T05:20:56.935Z,63.30
2018-07-11T05:23:26.243Z,63.30
2018-07-11T05:25:55.506Z,63.20
2018-07-11T05:28:24.804Z,63.20
2018-07-11T05:30:54.159Z,63.20
2018-07-11T05:33:23.512Z,63.20
2018-07-11T05:35:52.871Z,63.20
2018-07-11T05:38:22.170Z,63.20
2018-07-11T05:40:51.647Z,63.10
2018-07-11T05:43:20.996Z,63.10
2018-07-11T05:45:50.199Z,63.10
2018-07-11T05:48:19.454Z,63.10
2018-07-11T05:50:48.706Z,63.10
2018-07-11T05:53:18.101Z,63.00
2018-07-11T05:55:47.473Z,63.00
2018-07-11T05:58:16.779Z,63.10
2018-07-11T06:00:46.003Z,63.00
2018-07-11T06:03:15.327Z,63.00
2018-07-11T06:08:13.456Z,63.00
2018-07-11T06:10:42.684Z,63.00
2018-07-11T06:13:11.971Z,62.90
2018-07-11T06:15:41.265Z,63.00
2018-07-11T06:18:10.563Z,62.90
2018-07-11T06:20:39.814Z,62.90
2018-07-11T06:23:09.176Z,62.90
2018-07-11T06:25:38.467Z,62.90
2018-07-11T06:28:07.777Z,62.80
2018-07-11T06:30:37.007Z,62.70
2018-07-11T06:33:06.468Z,62.70
2018-07-11T06:35:35.697Z,62.70
2018-07-11T06:38:05.355Z,62.70
2018-07-11T06:40:34.661Z,62.60
2018-07-11T06:43:03.983Z,62.50
2018-07-11T06:45:33.279Z,62.50
2018-07-11T06:48:02.599Z,62.50
2018-07-11T06:50:31.920Z,62.50
2018-07-11T06:53:01.224Z,62.50
2018-07-11T06:55:30.491Z,62.50
2018-07-11T06:58:00.004Z,62.40
2018-07-11T07:00:29.385Z,62.30
2018-07-11T07:02:58.660Z,62.30
2018-07-11T07:05:27.890Z,62.30
2018-07-11T07:07:57.221Z,62.20
2018-07-11T07:10:26.871Z,62.20
2018-07-11T07:12:56.256Z,62.30
2018-07-11T07:15:25.488Z,62.00
2018-07-11T07:17:54.832Z,62.00
2018-07-11T07:20:24.129Z,62.10
2018-07-11T07:22:53.912Z,62.00
2018-07-11T07:25:23.113Z,62.00
2018-07-11T07:27:52.327Z,62.00
2018-07-11T07:30:21.684Z,62.00
2018-07-11T07:32:51.017Z,61.90
2018-07-11T07:35:20.660Z,62.00
2018-07-11T07:37:49.955Z,61.90
2018-07-11T07:40:19.139Z,61.90
2018-07-11T07:42:48.695Z,61.80
2018-07-11T07:45:18.132Z,61.90
2018-07-11T07:47:47.837Z,61.90
2018-07-11T07:50:17.684Z,61.90
2018-07-11T07:52:47.172Z,61.80
2018-07-11T07:55:16.352Z,61.60
2018-07-11T07:57:45.653Z,61.80
2018-07-11T08:00:14.888Z,61.90
2018-07-11T08:02:44.259Z,61.80
2018-07-11T08:05:13.630Z,61.90
2018-07-11T08:07:42.934Z,61.70
2018-07-11T08:10:12.258Z,61.80
2018-07-11T08:12:41.709Z,61.70
2018-07-11T08:15:11.275Z,61.70
2018-07-11T08:17:40.539Z,61.60
2018-07-11T08:20:09.865Z,61.60
2018-07-11T08:23:18.396Z,61.70
2018-07-11T08:25:59.900Z,61.70
2018-07-11T08:30:00.821Z,61.60
2018-07-11T08:34:53.505Z,61.50
2018-07-11T08:37:36.377Z,61.50
2018-07-11T08:40:46.053Z,61.50
2018-07-11T08:45:37.151Z,61.50
2018-07-11T08:50:24.405Z,61.50
2018-07-11T08:53:07.905Z,61.60
2018-07-11T08:57:56.927Z,61.60
2018-07-11T09:02:44.662Z,61.50
2018-07-11T09:07:35.503Z,61.60
2018-07-11T09:11:49.077Z,61.30
2018-07-11T09:14:49.553Z,61.30
2018-07-11T09:19:33.819Z,61.30
2018-07-11T09:22:14.115Z,61.30
2018-07-11T09:24:44.857Z,61.20
2018-07-11T09:27:14.563Z,61.30
2018-07-11T09:29:44.697Z,61.20
2018-07-11T09:32:14.579Z,61.30
2018-07-11T09:34:44.394Z,61.20
2018-07-11T09:37:13.812Z,61.20
2018-07-11T09:39:43.719Z,61.10
2018-07-11T09:42:13.056Z,61.20
2018-07-11T09:44:42.431Z,61.20
2018-07-11T09:47:16.918Z,61.10
2018-07-11T09:49:46.355Z,61.10
2018-07-11T09:52:15.776Z,61.10
2018-07-11T09:54:45.105Z,61.10
2018-07-11T09:57:14.468Z,61.10
2018-07-11T10:02:12.704Z,61.30
2018-07-11T10:04:42.584Z,61.30
2018-07-11T10:07:12.766Z,61.70
2018-07-11T10:09:42.307Z,61.70
2018-07-11T10:12:11.831Z,62.80
2018-07-11T10:14:41.129Z,62.50
2018-07-11T10:17:10.501Z,62.40
2018-07-11T10:19:39.766Z,62.10
2018-07-11T10:22:09.212Z,62.50
2018-07-11T10:24:38.575Z,63.30
2018-07-11T10:27:08.018Z,62.50
2018-07-11T10:29:37.496Z,62.40
2018-07-11T10:32:06.883Z,62.40
2018-07-11T10:34:36.206Z,62.40
2018-07-11T10:37:05.590Z,62.30
2018-07-11T10:39:34.874Z,62.30
2018-07-11T10:42:04.229Z,62.30
2018-07-11T10:44:33.625Z,62.20
2018-07-11T10:47:11.030Z,62.20
2018-07-11T10:49:40.634Z,62.20
2018-07-11T10:52:10.627Z,62.20
2018-07-11T10:54:40.157Z,62.20
2018-07-11T10:57:09.460Z,62.20
2018-07-11T11:04:36.563Z,62.20
2018-07-11T11:07:06.021Z,62.20
2018-07-11T11:09:35.385Z,62.10
2018-07-11T11:12:04.859Z,62.10
2018-07-11T11:14:34.240Z,62.10
2018-07-11T11:17:03.577Z,62.10
2018-07-11T11:19:32.895Z,62.10
2018-07-11T11:22:02.500Z,62.10
2018-07-11T11:24:32.138Z,62.10
2018-07-11T11:27:01.415Z,62.10
2018-07-11T11:29:30.822Z,62.00
2018-07-11T11:32:00.252Z,62.00
2018-07-11T11:34:29.534Z,62.00
2018-07-11T11:36:58.865Z,62.00
2018-07-11T11:39:28.236Z,62.00
2018-07-11T11:41:57.759Z,62.00
2018-07-11T11:44:27.224Z,62.00
2018-07-11T11:47:02.833Z,62.10
2018-07-11T11:49:32.668Z,62.10
2018-07-11T11:52:02.129Z,62.20
2018-07-11T11:54:31.521Z,62.30
2018-07-11T11:57:00.869Z,62.30
2018-07-11T11:59:30.230Z,62.40
2018-07-11T12:01:59.551Z,62.40
2018-07-11T12:04:28.818Z,62.40
2018-07-11T12:06:58.149Z,61.80
2018-07-11T12:09:27.502Z,62.40
2018-07-11T12:11:59.852Z,62.50
2018-07-11T12:14:29.576Z,62.50
2018-07-11T12:19:27.557Z,62.50
2018-07-11T12:21:56.951Z,62.50
2018-07-11T12:24:26.325Z,62.50
2018-07-11T12:26:55.692Z,62.50
2018-07-11T12:29:25.407Z,62.50
2018-07-11T12:31:54.802Z,62.50
2018-07-11T12:34:24.135Z,62.50
2018-07-11T12:36:54.864Z,62.50
2018-07-11T12:39:24.196Z,62.60
2018-07-11T12:41:53.655Z,62.60
2018-07-11T12:44:23.005Z,62.60
2018-07-11T12:46:52.373Z,62.60
2018-07-11T12:49:21.805Z,62.70
2018-07-11T12:51:51.234Z,62.70
2018-07-11T12:54:20.644Z,62.60
2018-07-11T12:56:49.960Z,62.70
2018-07-11T12:59:19.427Z,62.50
2018-07-11T13:01:48.903Z,62.50
2018-07-11T13:04:18.254Z,62.50
2018-07-11T13:06:47.583Z,62.60
2018-07-11T13:09:17.027Z,62.60
2018-07-11T13:11:46.433Z,62.60
2018-07-11T13:14:15.765Z,62.80
2018-07-11T13:16:45.383Z,62.80
2018-07-11T13:19:14.691Z,62.60
2018-07-11T13:21:44.979Z,62.50
2018-07-11T13:24:14.298Z,62.60
2018-07-11T13:26:43.954Z,62.90
2018-07-11T13:29:13.359Z,62.70
2018-07-11T13:31:42.872Z,63.10
2018-07-11T13:34:12.768Z,63.30
2018-07-11T13:36:42.216Z,62.60
2018-07-11T13:39:16.799Z,62.40
2018-07-11T13:41:47.132Z,62.50
2018-07-11T13:44:16.959Z,62.40
2018-07-11T13:46:46.667Z,62.50
2018-07-11T13:49:16.103Z,62.60
2018-07-11T13:51:45.566Z,62.50
2018-07-11T13:54:14.960Z,62.40
2018-07-11T13:56:44.649Z,62.30
2018-07-11T13:59:14.024Z,62.40
2018-07-11T14:01:43.444Z,62.70
2018-07-11T14:04:12.850Z,62.60
2018-07-11T14:06:42.240Z,62.60
2018-07-11T14:09:11.693Z,62.60
2018-07-11T14:11:41.062Z,62.70
2018-07-11T14:14:10.465Z,62.40
2018-07-11T14:16:40.563Z,62.40
2018-07-11T14:19:11.220Z,62.50
2018-07-11T14:21:41.660Z,62.70
2018-07-11T14:24:11.981Z,62.70
2018-07-11T14:26:42.218Z,62.80
2018-07-11T14:29:11.675Z,62.80
2018-07-11T14:31:41.047Z,62.90
2018-07-11T14:34:10.852Z,63.00
2018-07-11T14:36:40.225Z,62.90
2018-07-11T14:39:09.681Z,62.90
2018-07-11T14:41:39.088Z,62.90
2018-07-11T14:44:08.423Z,62.80
2018-07-11T14:46:37.736Z,62.70
2018-07-11T14:49:07.116Z,62.60
2018-07-11T14:51:36.752Z,62.50
2018-07-11T14:54:06.612Z,62.50
2018-07-11T14:56:36.253Z,62.40
2018-07-11T14:59:05.468Z,62.40
2018-07-11T15:01:34.772Z,62.30
2018-07-11T15:04:04.128Z,62.30
2018-07-11T15:06:33.526Z,62.30
2018-07-11T15:09:03.265Z,62.20
2018-07-11T15:11:32.646Z,62.90
2018-07-11T15:14:02.008Z,63.10
2018-07-11T15:16:31.358Z,63.30
2018-07-11T15:19:01.202Z,63.30
2018-07-11T15:21:30.732Z,63.40
2018-07-11T15:24:00.135Z,63.40
2018-07-11T15:28:58.530Z,63.50
2018-07-11T15:33:56.686Z,63.70
2018-07-11T15:36:25.972Z,63.70
2018-07-11T15:38:55.266Z,63.70
2018-07-11T15:41:24.676Z,63.70
2018-07-11T15:43:54.091Z,63.70
2018-07-11T15:46:23.500Z,63.60
2018-07-11T15:48:52.861Z,63.60
2018-07-11T15:51:22.293Z,63.60
2018-07-11T15:53:51.694Z,63.60
2018-07-11T15:56:21.127Z,63.60
2018-07-11T15:58:54.381Z,63.60
2018-07-11T16:01:23.807Z,64.60
2018-07-11T16:03:54.028Z,63.60
2018-07-11T16:06:23.468Z,63.60
2018-07-11T16:08:52.968Z,63.50
2018-07-11T16:11:22.434Z,63.40
2018-07-11T16:13:51.756Z,63.50
2018-07-11T16:16:21.126Z,63.30
2018-07-11T16:18:50.707Z,63.20
2018-07-11T16:21:20.172Z,63.30
2018-07-11T16:23:49.389Z,63.10
2018-07-11T16:28:47.745Z,63.20
2018-07-11T16:31:17.159Z,63.10
2018-07-11T16:34:07.658Z,63.10
2018-07-11T16:36:37.093Z,63.20
2018-07-11T16:39:06.517Z,62.80
2018-07-11T16:44:38.891Z,62.80
2018-07-11T16:47:08.453Z,62.60
2018-07-11T16:49:40.817Z,62.60
2018-07-11T16:52:10.014Z,62.60
2018-07-11T16:54:39.189Z,62.50
2018-07-11T16:57:09.306Z,62.40
2018-07-11T16:59:50.011Z,62.40
2018-07-11T17:02:24.248Z,62.40
2018-07-11T17:04:55.370Z,62.40
2018-07-11T17:07:26.332Z,62.30
2018-07-11T17:09:57.352Z,62.20
2018-07-11T17:12:26.810Z,62.20
2018-07-11T17:15:01.927Z,62.20
2018-07-11T17:17:35.937Z,62.10
2018-07-11T17:20:10.866Z,62.40
2018-07-11T17:22:53.764Z,62.50
2018-07-11T17:25:23.295Z,62.40
2018-07-11T17:28:00.504Z,62.90
2018-07-11T17:30:32.140Z,62.90
2018-07-11T17:33:02.955Z,63.40
2018-07-11T17:35:32.624Z,65.00
2018-07-11T17:38:05.789Z,65.70
2018-07-11T17:40:40.348Z,66.60
2018-07-11T17:43:12.702Z,66.60
2018-07-11T17:45:44.437Z,67.00
2018-07-11T17:48:21.703Z,66.10
2018-07-11T17:50:53.260Z,66.20
2018-07-11T17:53:23.711Z,66.00
2018-07-11T17:56:09.633Z,65.80
2018-07-11T17:58:53.268Z,65.80
2018-07-11T18:01:37.536Z,65.60
2018-07-11T18:04:16.857Z,65.60
2018-07-11T18:06:54.553Z,65.50
2018-07-11T18:09:24.465Z,65.20
2018-07-11T18:11:59.820Z,65.00
2018-07-11T18:14:51.050Z,64.70
2018-07-11T18:17:32.752Z,64.80
2018-07-11T18:20:12.070Z,64.70
2018-07-11T18:23:47.796Z,64.60
2018-07-11T18:26:25.515Z,64.70
2018-07-11T18:29:04.456Z,64.50
2018-07-11T18:32:47.653Z,64.60
2018-07-11T18:35:39.585Z,61.80
2018-07-11T18:39:25.148Z,58.90
2018-07-11T18:42:05.323Z,59.60
2018-07-11T18:44:45.513Z,58.80
2018-07-11T18:47:38.133Z,57.60
2018-07-11T18:51:15.575Z,57.80
2018-07-11T18:53:53.570Z,57.70
2018-07-11T18:56:36.598Z,59.00
2018-07-11T19:00:13.381Z,58.90
2018-07-11T19:03:02.438Z,57.50
2018-07-11T19:07:47.738Z,56.60
2018-07-11T19:10:21.859Z,56.50
2018-07-11T19:12:59.103Z,56.80
2018-07-11T19:18:44.479Z,56.90
2018-07-11T19:21:18.590Z,56.30
2018-07-11T19:24:02.556Z,56.10
2018-07-11T19:26:46.887Z,56.10
2018-07-11T19:29:53.424Z,56.00
2018-07-11T19:32:32.305Z,55.70
2018-07-11T19:36:11.042Z,55.90
2018-07-11T19:38:46.900Z,55.60
2018-07-11T19:41:20.905Z,56.00
2018-07-11T19:44:00.950Z,55.80
2018-07-11T19:46:37.432Z,55.90
2018-07-11T19:51:56.454Z,55.70
2018-07-11T19:55:47.331Z,55.60
2018-07-11T19:58:16.594Z,56.20
2018-07-11T20:00:45.857Z,56.20
2018-07-11T20:03:15.416Z,56.20
2018-07-11T20:05:53.344Z,56.60
2018-07-11T20:08:14.131Z,56.40
2018-07-11T20:10:43.498Z,56.80
2018-07-11T20:13:12.948Z,57.00
2018-07-11T20:18:10.996Z,57.20
2018-07-11T20:20:40.234Z,57.00
2018-07-11T20:23:09.494Z,57.30
2018-07-11T20:25:38.872Z,57.60
2018-07-11T20:28:08.194Z,57.80
2018-07-11T20:30:37.600Z,57.20
2018-07-11T20:33:07.259Z,57.40
2018-07-11T20:35:36.944Z,58.00
2018-07-11T20:38:06.852Z,58.30
2018-07-11T20:40:36.373Z,57.90
2018-07-11T20:43:05.907Z,57.60
2018-07-11T20:45:35.674Z,57.50
2018-07-11T20:48:04.933Z,58.10
2018-07-11T20:50:34.146Z,58.30
2018-07-11T20:53:03.403Z,58.00
2018-07-11T20:55:33.983Z,58.30
2018-07-11T20:58:14.232Z,58.40
2018-07-11T21:00:54.367Z,58.50
2018-07-11T21:04:42.091Z,58.50
2018-07-11T21:09:29.447Z,58.50
2018-07-11T21:12:36.239Z,58.60
2018-07-11T21:15:16.890Z,58.60
2018-07-11T21:18:01.425Z,58.80
2018-07-11T21:20:30.616Z,59.00
2018-07-11T21:22:59.854Z,59.00
2018-07-11T21:25:29.092Z,59.20
2018-07-11T21:27:58.293Z,59.00
2018-07-11T21:30:27.484Z,58.80
2018-07-11T21:32:56.660Z,58.70
2018-07-11T21:35:25.883Z,59.00
2018-07-11T21:37:55.077Z,59.00
2018-07-11T21:40:24.286Z,59.30
2018-07-11T21:42:53.479Z,59.40
2018-07-11T21:45:22.720Z,59.40
2018-07-11T21:47:51.952Z,59.50
2018-07-11T21:50:21.146Z,59.40
2018-07-11T21:52:50.316Z,59.30
2018-07-11T21:55:19.572Z,59.70
2018-07-11T21:57:48.747Z,59.80
2018-07-11T22:00:28.919Z,59.80
2018-07-11T22:02:58.140Z,60.10
2018-07-11T22:05:27.657Z,60.20
2018-07-11T22:07:57.002Z,60.10
2018-07-11T22:10:26.207Z,60.20
2018-07-11T22:12:55.391Z,60.40
2018-07-11T22:15:24.759Z,60.60
2018-07-11T22:18:04.789Z,60.60
2018-07-11T22:20:33.445Z,60.70
2018-07-11T22:23:01.605Z,60.90
2018-07-11T22:25:29.309Z,60.80
2018-07-11T22:27:56.959Z,60.90
2018-07-11T22:30:24.657Z,61.10
2018-07-11T22:32:52.359Z,60.90
2018-07-11T22:35:20.060Z,60.80
2018-07-11T22:37:47.720Z,60.50
2018-07-11T22:40:15.369Z,60.50
2018-07-11T22:42:43.065Z,60.30
2018-07-11T22:47:38.915Z,60.60
2018-07-11T22:50:06.637Z,60.60
2018-07-11T22:52:34.366Z,60.60
2018-07-11T22:55:02.068Z,60.60
2018-07-11T22:57:29.755Z,60.50
2018-07-11T23:02:25.332Z,60.70
2018-07-11T23:04:53.076Z,60.60
2018-07-11T23:07:20.757Z,60.50
2018-07-11T23:09:48.417Z,60.50
2018-07-11T23:12:16.077Z,60.50
2018-07-11T23:14:43.774Z,60.50
2018-07-11T23:17:11.430Z,60.60
2018-07-11T23:19:39.448Z,60.60
2018-07-11T23:22:07.165Z,60.90
2018-07-11T23:24:35.859Z,61.10
2018-07-11T23:27:03.508Z,61.20
2018-07-11T23:29:31.152Z,61.10
2018-07-11T23:31:58.803Z,61.30
2018-07-11T23:34:26.473Z,61.50
2018-07-11T23:36:54.434Z,61.50
2018-07-11T23:39:22.096Z,61.90
2018-07-11T23:41:49.768Z,62.00
2018-07-11T23:44:17.471Z,61.90
2018-07-11T23:46:45.230Z,61.90
2018-07-11T23:49:12.885Z,62.00
2018-07-11T23:51:40.895Z,62.20
2018-07-11T23:54:08.612Z,61.90
2018-07-11T23:56:36.272Z,61.70
2018-07-11T23:59:03.936Z,61.80
